Time;durP1;ratioP1;P1;durP2;ratioP2;P2;SDS_P1;SDS_P2;PMS_P1;PMS_P2;Temp;Humidity;BMP_temperature;BMP_pressure;BME280_temperature;BME280_humidity;BME280_pressure;Samples;Min_cycle;Max_cycle;Signal;HPM_P1;HPM_P2
2020/12/23 00:00:02;;;;;;;2.40;1.80;;;13.70;99.90;;;;;;5068587;28;20439;-76
2020/12/23 00:02:47;;;;;;;3.80;2.43;;;13.70;99.90;;;;;;5069322;28;20433;-76
2020/12/23 00:05:32;;;;;;;2.97;2.03;;;13.70;99.90;;;;;;5064149;28;20814;-75
2020/12/23 00:08:17;;;;;;;2.40;1.77;;;13.70;99.90;;;;;;5061372;28;21064;-76
2020/12/23 00:11:03;;;;;;;3.83;2.03;;;13.70;99.90;;;;;;5065179;28;20446;-75
2020/12/23 00:13:48;;;;;;;3.67;2.00;;;13.70;99.90;;;;;;5066313;28;21170;-76
2020/12/23 00:16:33;;;;;;;2.27;1.63;;;13.70;99.90;;;;;;5063589;28;20451;-77
2020/12/23 00:19:19;;;;;;;2.37;1.70;;;13.80;99.90;;;;;;5062852;28;20823;-77
2020/12/23 00:22:04;;;;;;;5.30;1.97;;;13.80;99.90;;;;;;5069787;28;20474;-76
2020/12/23 00:24:49;;;;;;;2.40;1.50;;;13.80;99.90;;;;;;5067065;28;20817;-77
2020/12/23 00:27:35;;;;;;;2.67;1.63;;;13.80;99.90;;;;;;5065970;28;20446;-75
2020/12/23 00:30:20;;;;;;;2.90;1.80;;;13.80;99.90;;;;;;5068354;28;20521;-76
2020/12/23 00:33:05;;;;;;;3.50;1.90;;;13.80;99.90;;;;;;5067279;28;20833;-76
2020/12/23 00:35:50;;;;;;;6.00;1.80;;;13.80;99.90;;;;;;5065036;28;20389;-74
2020/12/23 00:38:35;;;;;;;2.70;2.20;;;13.80;99.90;;;;;;5064071;28;20489;-76
2020/12/23 00:41:20;;;;;;;3.63;2.00;;;13.80;99.90;;;;;;5054531;28;20875;-76
2020/12/23 00:44:06;;;;;;;5.03;1.97;;;13.80;99.90;;;;;;5068152;28;20988;-76
2020/12/23 00:46:53;;;;;;;2.30;1.77;;;13.70;99.90;;;;;;5059730;28;20455;-75
2020/12/23 00:49:38;;;;;;;6.43;2.20;;;13.70;99.90;;;;;;5056290;28;20441;-76
2020/12/23 00:52:23;;;;;;;3.07;1.67;;;13.70;99.90;;;;;;5056677;28;20436;-76
2020/12/23 00:55:09;;;;;;;3.90;1.97;;;13.80;99.90;;;;;;5064061;28;20468;-76
2020/12/23 00:57:54;;;;;;;3.50;1.60;;;13.70;99.90;;;;;;5063739;28;20957;-76
2020/12/23 01:00:41;;;;;;;5.20;2.33;;;13.70;99.90;;;;;;5070915;28;20454;-76
2020/12/23 01:03:26;;;;;;;2.53;1.63;;;13.80;99.90;;;;;;5066076;28;20418;-76
2020/12/23 01:06:12;;;;;;;5.60;1.77;;;13.70;99.90;;;;;;5054735;28;20590;-76
2020/12/23 01:08:57;;;;;;;2.80;1.60;;;13.70;99.90;;;;;;5064628;28;20522;-76
2020/12/23 01:11:42;;;;;;;3.10;1.83;;;13.70;99.90;;;;;;5061293;28;20564;-76
2020/12/23 01:14:27;;;;;;;3.63;1.93;;;13.80;99.90;;;;;;5062250;28;20451;-76
2020/12/23 01:17:14;;;;;;;3.60;1.83;;;13.80;99.90;;;;;;5059289;28;20474;-76
2020/12/23 01:19:59;;;;;;;5.63;2.00;;;13.70;99.90;;;;;;5057961;28;20513;-76
2020/12/23 01:22:44;;;;;;;4.00;2.60;;;13.80;99.90;;;;;;5063435;28;20502;-76
2020/12/23 01:25:29;;;;;;;3.27;1.60;;;13.80;99.90;;;;;;5066488;28;20420;-76
2020/12/23 01:28:14;;;;;;;2.43;1.60;;;13.80;99.90;;;;;;5062389;28;20842;-76
2020/12/23 01:30:59;;;;;;;3.50;1.70;;;13.70;99.90;;;;;;5061867;28;20446;-76
2020/12/23 01:33:45;;;;;;;4.10;1.80;;;13.80;99.90;;;;;;5059106;28;20439;-75
2020/12/23 01:36:30;;;;;;;3.17;2.27;;;13.80;99.90;;;;;;5064535;28;20497;-76
2020/12/23 01:39:15;;;;;;;2.40;1.57;;;13.80;99.90;;;;;;5061096;28;20513;-75
2020/12/23 01:42:00;;;;;;;3.20;1.53;;;13.80;99.90;;;;;;5065852;28;20470;-76
2020/12/23 01:44:45;;;;;;;3.43;1.70;;;13.70;99.90;;;;;;5065912;28;20544;-76
2020/12/23 01:47:31;;;;;;;2.47;1.80;;;13.70;99.90;;;;;;5058038;28;20450;-76
2020/12/23 01:50:18;;;;;;;2.90;1.70;;;13.80;99.90;;;;;;5062633;28;20454;-76
2020/12/23 01:53:03;;;;;;;5.13;2.57;;;13.70;99.90;;;;;;5061844;28;20501;-76
2020/12/23 01:55:48;;;;;;;4.23;1.90;;;13.70;99.90;;;;;;5068250;28;20825;-75
2020/12/23 01:58:33;;;;;;;2.33;1.77;;;13.70;99.90;;;;;;5067583;28;20514;-77
2020/12/23 02:01:20;;;;;;;4.93;2.00;;;13.60;99.90;;;;;;5054545;28;20506;-76
2020/12/23 02:04:05;;;;;;;2.83;2.03;;;13.60;99.90;;;;;;5060185;28;20466;-76
2020/12/23 02:06:51;;;;;;;2.70;2.27;;;13.60;99.90;;;;;;5063771;28;20826;-76
2020/12/23 02:09:37;;;;;;;3.47;2.00;;;13.70;99.90;;;;;;5061132;28;20468;-74
2020/12/23 02:12:23;;;;;;;3.47;2.20;;;13.70;99.90;;;;;;5064813;28;20958;-76
2020/12/23 02:15:09;;;;;;;3.60;2.30;;;13.70;99.90;;;;;;5067834;28;20452;-76
2020/12/23 02:17:55;;;;;;;3.30;2.23;;;13.60;99.90;;;;;;5058769;28;20421;-77
2020/12/23 02:20:40;;;;;;;4.27;1.93;;;13.60;99.90;;;;;;5055899;28;20510;-76
2020/12/23 02:23:26;;;;;;;4.13;2.27;;;13.60;99.90;;;;;;5059474;28;20840;-75
2020/12/23 02:26:11;;;;;;;2.87;1.90;;;13.50;99.90;;;;;;5056965;28;20488;-76
2020/12/23 02:28:56;;;;;;;6.60;2.20;;;13.60;99.90;;;;;;5055620;28;20445;-76
2020/12/23 02:31:41;;;;;;;7.30;2.50;;;13.60;99.90;;;;;;5055741;28;20830;-74
2020/12/23 02:34:26;;;;;;;4.40;2.20;;;13.60;99.90;;;;;;5056906;28;20447;-76
2020/12/23 02:37:12;;;;;;;2.17;1.83;;;13.50;99.90;;;;;;5057274;28;20454;-76
2020/12/23 02:39:58;;;;;;;3.40;2.60;;;13.50;99.90;;;;;;5061192;28;21019;-76
2020/12/23 02:42:42;;;;;;;3.87;2.50;;;13.50;99.90;;;;;;5066596;28;20516;-76
2020/12/23 02:45:28;;;;;;;4.70;2.30;;;13.50;99.90;;;;;;5065908;28;20467;-75
2020/12/23 02:48:13;;;;;;;3.60;2.67;;;13.40;99.90;;;;;;5065745;28;20485;-76
2020/12/23 02:50:58;;;;;;;5.03;2.93;;;13.50;99.90;;;;;;5062740;28;20811;-75
2020/12/23 02:53:43;;;;;;;3.50;2.70;;;13.50;99.90;;;;;;5059060;28;21010;-76
2020/12/23 02:56:29;;;;;;;4.50;2.90;;;13.50;99.90;;;;;;5063243;28;20435;-76
2020/12/23 02:59:14;;;;;;;3.73;3.30;;;13.40;99.90;;;;;;5065430;28;20433;-77
2020/12/23 03:02:00;;;;;;;8.07;3.30;;;13.40;99.90;;;;;;5055879;28;20446;-76
2020/12/23 03:04:45;;;;;;;3.87;3.47;;;13.40;99.90;;;;;;5067092;28;20916;-76
2020/12/23 03:07:30;;;;;;;3.63;3.30;;;13.40;99.90;;;;;;5066119;28;20488;-77
2020/12/23 03:10:15;;;;;;;4.87;3.30;;;13.40;99.90;;;;;;5061758;28;20509;-76
2020/12/23 03:13:01;;;;;;;2.57;2.00;;;13.30;99.90;;;;;;5064659;28;20448;-76
2020/12/23 03:15:46;;;;;;;3.23;2.37;;;13.20;99.90;;;;;;5069639;28;20442;-76
2020/12/23 03:18:31;;;;;;;3.20;2.47;;;13.30;99.90;;;;;;5058152;28;20450;-74
2020/12/23 03:21:17;;;;;;;2.10;1.53;;;13.30;99.90;;;;;;5064077;28;20442;-76
2020/12/23 03:24:02;;;;;;;3.37;2.40;;;13.30;99.90;;;;;;5059203;28;20447;-76
2020/12/23 03:26:47;;;;;;;5.63;1.97;;;13.20;99.90;;;;;;5059594;28;20455;-76
2020/12/23 03:29:33;;;;;;;2.37;1.73;;;13.30;99.90;;;;;;5061704;28;20459;-75
2020/12/23 03:32:18;;;;;;;3.40;2.60;;;13.20;99.90;;;;;;5059660;28;20469;-76
2020/12/23 03:35:03;;;;;;;2.63;1.87;;;13.20;99.90;;;;;;5066972;28;20474;-74
2020/12/23 03:37:48;;;;;;;2.40;1.83;;;13.30;99.90;;;;;;5067060;28;20526;-76
2020/12/23 03:40:34;;;;;;;4.13;1.97;;;13.20;99.90;;;;;;5067051;28;20584;-76
2020/12/23 03:43:19;;;;;;;3.07;1.90;;;13.20;99.90;;;;;;5060266;28;20523;-76
2020/12/23 03:46:05;;;;;;;7.10;2.33;;;13.20;99.90;;;;;;5061177;28;20450;-75
2020/12/23 03:48:49;;;;;;;2.07;1.77;;;13.20;99.90;;;;;;5064454;28;20471;-77
2020/12/23 03:51:35;;;;;;;8.27;2.63;;;13.20;99.90;;;;;;5070941;28;20446;-77
2020/12/23 03:54:20;;;;;;;5.87;2.57;;;13.20;99.90;;;;;;5070108;28;20598;-75
2020/12/23 03:57:05;;;;;;;4.37;2.50;;;13.20;99.90;;;;;;5064031;28;20553;-76
2020/12/23 03:59:50;;;;;;;8.87;2.60;;;13.20;99.90;;;;;;5062941;28;20509;-75
2020/12/23 04:02:36;;;;;;;3.00;2.17;;;13.20;99.90;;;;;;5063115;28;20506;-76
2020/12/23 04:05:21;;;;;;;9.50;2.53;;;13.10;99.90;;;;;;5064822;28;20815;-77
2020/12/23 04:08:06;;;;;;;10.43;2.60;;;13.00;99.90;;;;;;5071711;28;20431;-75
2020/12/23 04:10:52;;;;;;;10.33;2.40;;;13.10;99.90;;;;;;5060379;28;20806;-76
2020/12/23 04:13:37;;;;;;;3.80;2.30;;;13.10;99.90;;;;;;5065424;28;20490;-76
2020/12/23 04:16:22;;;;;;;4.60;2.53;;;13.10;99.90;;;;;;5059078;28;20454;-76
2020/12/23 04:19:08;;;;;;;6.10;2.23;;;13.10;99.90;;;;;;5067619;28;20695;-76
2020/12/23 04:21:53;;;;;;;4.70;2.10;;;13.20;99.90;;;;;;5070292;28;20513;-76
2020/12/23 04:24:38;;;;;;;5.67;2.50;;;13.20;99.90;;;;;;5061246;28;20477;-77
2020/12/23 04:27:24;;;;;;;3.93;2.43;;;13.10;99.90;;;;;;5062634;28;20488;-76
2020/12/23 04:30:09;;;;;;;4.73;2.60;;;13.10;99.90;;;;;;5056753;28;20467;-77
2020/12/23 04:32:55;;;;;;;4.07;2.17;;;13.10;99.90;;;;;;5067744;28;20847;-77
2020/12/23 04:35:41;;;;;;;2.90;2.40;;;13.10;99.90;;;;;;5068865;28;20851;-75
2020/12/23 04:38:26;;;;;;;5.10;2.70;;;13.10;99.90;;;;;;5062348;28;21227;-76
2020/12/23 04:41:11;;;;;;;5.03;3.80;;;13.10;99.90;;;;;;5054770;28;20493;-76
2020/12/23 04:43:56;;;;;;;3.93;3.53;;;13.10;99.90;;;;;;5070721;28;20450;-75
2020/12/23 04:46:44;;;;;;;3.63;2.73;;;13.20;99.90;;;;;;5058706;28;20459;-76
2020/12/23 04:49:35;;;;;;;10.37;3.27;;;13.20;99.90;;;;;;5065681;28;20439;-76
2020/12/23 04:52:29;;;;;;;6.27;4.23;;;13.20;99.90;;;;;;5053704;28;20452;-76
2020/12/23 04:55:14;;;;;;;9.30;4.80;;;13.20;99.90;;;;;;5057601;28;21254;-75
2020/12/23 04:58:00;;;;;;;5.40;4.90;;;13.20;99.90;;;;;;5065941;28;20438;-76
2020/12/23 05:00:45;;;;;;;6.20;5.60;;;13.20;99.90;;;;;;5062571;28;20439;-75
2020/12/23 05:03:30;;;;;;;5.00;4.50;;;13.20;99.90;;;;;;5062738;28;21075;-77
2020/12/23 05:06:15;;;;;;;4.47;4.07;;;13.20;99.90;;;;;;5063279;28;20462;-77
2020/12/23 05:09:02;;;;;;;6.60;5.30;;;13.20;99.90;;;;;;5063263;28;20470;-75
2020/12/23 05:11:47;;;;;;;5.83;4.53;;;13.20;99.90;;;;;;5067571;28;20467;-76
2020/12/23 05:14:33;;;;;;;4.60;3.87;;;13.10;99.90;;;;;;5060763;28;20417;-76
2020/12/23 05:17:19;;;;;;;5.90;4.17;;;13.10;99.90;;;;;;5059688;28;20393;-76
2020/12/23 05:20:07;;;;;;;5.00;4.33;;;13.10;99.90;;;;;;5051898;28;20531;-75
2020/12/23 05:22:53;;;;;;;7.20;6.00;;;13.10;99.90;;;;;;5064626;28;21132;-77
2020/12/23 05:25:40;;;;;;;4.50;3.40;;;13.10;99.90;;;;;;5057724;28;20436;-76
2020/12/23 05:28:25;;;;;;;2.47;2.27;;;13.20;99.90;;;;;;5057361;28;20508;-76
2020/12/23 05:31:12;;;;;;;2.27;1.70;;;13.20;99.90;;;;;;5065979;28;21091;-76
2020/12/23 05:33:59;;;;;;;2.43;1.83;;;13.20;99.90;;;;;;5059466;28;20446;-76
2020/12/23 05:36:44;;;;;;;7.93;1.40;;;13.20;99.90;;;;;;5064888;28;20447;-76
2020/12/23 05:39:31;;;;;;;2.47;1.33;;;13.20;99.90;;;;;;5060855;28;20479;-78
2020/12/23 05:42:18;;;;;;;1.77;0.90;;;13.30;99.90;;;;;;5055010;28;20478;-75
2020/12/23 05:45:07;;;;;;;1.50;0.90;;;13.30;99.90;;;;;;5055001;28;20445;-75
2020/12/23 05:47:53;;;;;;;2.33;1.03;;;13.30;99.90;;;;;;5058592;28;20494;-75
2020/12/23 05:50:39;;;;;;;1.67;0.83;;;13.40;99.90;;;;;;5058701;28;20433;-76
2020/12/23 05:53:27;;;;;;;1.40;0.80;;;13.30;99.90;;;;;;5067138;28;20891;-77
2020/12/23 05:56:12;;;;;;;1.40;0.83;;;13.40;99.90;;;;;;5054627;28;21108;-76
2020/12/23 05:58:58;;;;;;;3.50;0.90;;;13.30;99.90;;;;;;5065658;28;20930;-74
2020/12/23 06:01:45;;;;;;;4.30;0.90;;;13.30;99.90;;;;;;5056855;28;20470;-76
2020/12/23 06:04:32;;;;;;;1.57;0.80;;;13.40;99.90;;;;;;5059370;28;20466;-75
2020/12/23 06:07:22;;;;;;;1.50;0.83;;;13.40;99.90;;;;;;5054507;28;20445;-76
2020/12/23 06:10:11;;;;;;;1.33;0.70;;;13.40;99.90;;;;;;5068000;28;20495;-76
2020/12/23 06:13:03;;;;;;;1.40;0.80;;;13.40;99.90;;;;;;5067024;28;20949;-76
2020/12/23 06:15:59;;;;;;;1.90;0.90;;;13.40;99.90;;;;;;5057103;28;20496;-76
2020/12/23 06:18:46;;;;;;;1.40;0.80;;;13.40;99.90;;;;;;5071895;28;20450;-75
2020/12/23 06:21:31;;;;;;;2.13;0.83;;;13.40;99.90;;;;;;5054523;28;20439;-76
2020/12/23 06:24:16;;;;;;;1.20;0.60;;;13.30;99.90;;;;;;5051575;28;20585;-76
2020/12/23 06:27:04;;;;;;;1.40;0.80;;;13.30;99.90;;;;;;5070370;28;20459;-76
2020/12/23 06:29:49;;;;;;;1.50;0.73;;;13.30;99.90;;;;;;5068243;28;20441;-76
2020/12/23 06:32:36;;;;;;;2.90;0.70;;;13.20;99.90;;;;;;5074618;28;20467;-77
2020/12/23 06:35:23;;;;;;;1.33;0.77;;;13.20;99.90;;;;;;5067972;28;20504;-76
2020/12/23 06:38:20;;;;;;;1.50;0.90;;;13.30;99.90;;;;;;5051574;28;20451;-75
2020/12/23 06:41:05;;;;;;;1.50;1.00;;;13.40;99.90;;;;;;5063681;28;20478;-77
2020/12/23 06:43:54;;;;;;;2.23;1.60;;;13.40;99.90;;;;;;5073788;28;20471;-76
2020/12/23 06:47:08;;;;;;;1.80;1.20;;;13.30;99.90;;;;;;5056959;28;20418;-77
2020/12/23 06:49:55;;;;;;;2.33;1.33;;;13.20;99.90;;;;;;5053325;28;20471;-76
2020/12/23 06:52:46;;;;;;;1.50;1.07;;;13.30;99.90;;;;;;5051161;28;20393;-74
2020/12/23 06:55:49;;;;;;;1.70;1.30;;;13.30;99.90;;;;;;5052688;28;20756;-75
2020/12/23 06:58:38;;;;;;;1.33;0.77;;;13.20;99.90;;;;;;5058676;28;20425;-77
2020/12/23 07:01:24;;;;;;;3.47;1.20;;;13.30;99.90;;;;;;5062645;28;20459;-76
2020/12/23 07:04:10;;;;;;;1.70;0.80;;;13.30;99.90;;;;;;5051166;28;20410;-77
2020/12/23 07:06:56;;;;;;;2.00;0.80;;;13.30;99.90;;;;;;5059089;28;20501;-76
2020/12/23 07:09:49;;;;;;;1.80;1.13;;;13.40;99.90;;;;;;5064393;28;20481;-76
2020/12/23 07:12:37;;;;;;;2.57;1.17;;;13.40;99.90;;;;;;5074718;28;20487;-77
2020/12/23 07:15:24;;;;;;;2.07;1.00;;;13.40;99.90;;;;;;5069502;28;20397;-77
2020/12/23 07:18:11;;;;;;;3.43;1.30;;;13.40;99.90;;;;;;5070044;28;20477;-76
2020/12/23 07:21:07;;;;;;;5.57;2.00;;;13.40;99.90;;;;;;5062265;28;20420;-77
2020/12/23 07:23:58;;;;;;;3.80;1.70;;;13.50;99.90;;;;;;5071237;28;20844;-77
2020/12/23 07:26:46;;;;;;;3.27;2.17;;;13.40;99.90;;;;;;5052409;28;20654;-77
2020/12/23 07:29:41;;;;;;;3.43;2.37;;;13.40;99.90;;;;;;5049961;28;20442;-77
2020/12/23 07:32:26;;;;;;;4.23;2.93;;;13.40;99.90;;;;;;5048380;28;21088;-75
2020/12/23 07:35:11;;;;;;;4.60;2.70;;;13.30;99.90;;;;;;5064491;28;20461;-77
2020/12/23 07:37:59;;;;;;;3.47;2.57;;;13.30;99.90;;;;;;5071779;28;20451;-76
2020/12/23 07:40:45;;;;;;;3.10;2.37;;;13.40;99.90;;;;;;5055034;28;21038;-76
2020/12/23 07:43:31;;;;;;;2.70;2.13;;;13.40;99.90;;;;;;5070083;28;20469;-77
2020/12/23 07:46:22;;;;;;;3.00;2.40;;;13.40;99.90;;;;;;5068441;28;20418;-76
2020/12/23 07:49:09;;;;;;;2.60;2.10;;;13.40;99.90;;;;;;5062080;28;20913;-77
2020/12/23 07:51:55;;;;;;;1.97;1.20;;;13.50;99.90;;;;;;5052607;28;20601;-77
2020/12/23 07:54:41;;;;;;;3.23;2.30;;;13.50;99.90;;;;;;5050700;28;20450;-75
2020/12/23 07:57:30;;;;;;;4.20;1.73;;;13.50;99.90;;;;;;5050430;28;20950;-77
2020/12/23 08:00:16;;;;;;;2.10;1.30;;;13.60;99.90;;;;;;5058893;28;20563;-77
2020/12/23 08:03:01;;;;;;;8.40;1.60;;;13.60;99.90;;;;;;5071231;28;20517;-77
2020/12/23 08:05:46;;;;;;;2.00;1.23;;;13.60;99.90;;;;;;5052371;28;20447;-76
2020/12/23 08:08:32;;;;;;;2.90;1.47;;;13.60;99.90;;;;;;5049767;28;20423;-76
2020/12/23 08:11:17;;;;;;;3.27;1.80;;;13.60;99.90;;;;;;5056779;28;20542;-77
2020/12/23 08:14:03;;;;;;;2.00;1.50;;;13.60;99.90;;;;;;5063185;28;20785;-77
2020/12/23 08:16:57;;;;;;;10.03;2.40;;;13.70;99.90;;;;;;5052038;28;20486;-77
2020/12/23 08:19:42;;;;;;;4.40;1.90;;;13.70;99.90;;;;;;5048020;28;20805;-77
2020/12/23 08:22:27;;;;;;;5.33;2.00;;;13.70;99.90;;;;;;5060930;28;21062;-77
2020/12/23 08:25:14;;;;;;;2.37;1.57;;;13.70;99.90;;;;;;5064177;28;20505;-76
2020/12/23 08:28:00;;;;;;;4.30;1.70;;;13.70;99.90;;;;;;5052004;28;20875;-77
2020/12/23 08:30:47;;;;;;;3.10;1.70;;;13.70;99.90;;;;;;5054551;28;20414;-75
2020/12/23 08:33:33;;;;;;;2.27;1.50;;;13.60;99.90;;;;;;5065710;28;20440;-75
2020/12/23 08:36:22;;;;;;;3.57;2.13;;;13.60;99.90;;;;;;5056332;28;20908;-77
2020/12/23 08:39:08;;;;;;;2.27;1.30;;;13.50;99.90;;;;;;5066620;28;20478;-77
2020/12/23 08:41:53;;;;;;;2.70;1.67;;;13.50;99.90;;;;;;5071741;28;20462;-77
2020/12/23 08:44:39;;;;;;;3.07;1.50;;;13.60;99.90;;;;;;5071250;28;20561;-76
2020/12/23 08:47:31;;;;;;;3.63;1.73;;;13.50;99.90;;;;;;5063151;28;20868;-76
2020/12/23 08:50:18;;;;;;;2.40;1.50;;;13.50;99.90;;;;;;5049480;28;20809;-77
2020/12/23 08:53:04;;;;;;;2.63;1.67;;;13.60;99.90;;;;;;5048664;28;20429;-77
2020/12/23 08:55:48;;;;;;;3.33;1.60;;;13.60;99.90;;;;;;5051830;28;20412;-77
2020/12/23 08:58:34;;;;;;;4.10;1.70;;;13.50;99.90;;;;;;5048985;28;21009;-76
2020/12/23 09:01:23;;;;;;;2.93;1.47;;;13.50;99.90;;;;;;5048208;28;20423;-76
2020/12/23 09:04:10;;;;;;;3.50;2.07;;;13.50;99.90;;;;;;5054095;28;20534;-77
2020/12/23 09:06:58;;;;;;;4.30;2.00;;;13.50;99.90;;;;;;5051484;28;20471;-76
2020/12/23 09:09:44;;;;;;;2.30;1.67;;;13.50;99.90;;;;;;5052144;28;20522;-76
2020/12/23 09:12:29;;;;;;;2.40;1.87;;;13.50;99.90;;;;;;5062373;28;20609;-77
2020/12/23 09:15:15;;;;;;;3.93;1.63;;;13.50;99.90;;;;;;5048459;28;21026;-77
2020/12/23 09:18:08;;;;;;;5.87;1.63;;;13.50;99.90;;;;;;5067716;28;20427;-77
2020/12/23 09:20:59;;;;;;;5.23;1.77;;;13.50;99.90;;;;;;5068969;28;20396;-77
2020/12/23 09:23:44;;;;;;;5.70;2.00;;;13.40;99.90;;;;;;5067800;28;20462;-76
2020/12/23 09:26:29;;;;;;;4.80;2.20;;;13.50;99.90;;;;;;5064908;28;20437;-77
2020/12/23 09:29:14;;;;;;;2.90;1.90;;;13.50;99.90;;;;;;5052844;28;20525;-74
2020/12/23 09:32:01;;;;;;;5.30;1.77;;;13.40;99.90;;;;;;5048849;28;20425;-77
2020/12/23 09:34:46;;;;;;;2.60;2.00;;;13.40;99.90;;;;;;5052476;28;20500;-76
2020/12/23 09:37:32;;;;;;;4.00;1.63;;;13.40;99.90;;;;;;5050778;28;20457;-76
2020/12/23 09:40:17;;;;;;;5.90;2.10;;;13.30;99.90;;;;;;5052273;28;20478;-77
2020/12/23 09:43:08;;;;;;;3.50;2.50;;;13.30;99.90;;;;;;5061796;28;20544;-75
2020/12/23 09:45:54;;;;;;;6.47;2.17;;;13.30;99.90;;;;;;5069546;28;20454;-77
2020/12/23 09:48:39;;;;;;;5.30;2.10;;;13.30;99.90;;;;;;5059343;28;20500;-77
2020/12/23 09:51:24;;;;;;;2.73;2.10;;;13.30;99.90;;;;;;5054770;28;20493;-76
2020/12/23 09:54:10;;;;;;;3.40;1.90;;;13.40;99.90;;;;;;5054290;28;20510;-76
2020/12/23 09:56:56;;;;;;;4.03;2.10;;;13.40;99.90;;;;;;5067258;28;20481;-77
2020/12/23 09:59:41;;;;;;;3.70;2.00;;;13.40;99.90;;;;;;5065952;28;20858;-75
2020/12/23 10:02:26;;;;;;;3.70;2.10;;;13.30;99.90;;;;;;5053589;28;20441;-76
2020/12/23 10:05:11;;;;;;;3.30;1.77;;;13.40;99.90;;;;;;5052133;28;20546;-75
2020/12/23 10:07:56;;;;;;;3.63;2.53;;;13.40;99.90;;;;;;5052569;28;20844;-76
2020/12/23 10:10:43;;;;;;;4.00;2.13;;;13.40;99.90;;;;;;5055465;28;20425;-77
2020/12/23 10:13:28;;;;;;;2.93;1.80;;;13.50;99.90;;;;;;5069086;28;20412;-76
2020/12/23 10:16:13;;;;;;;2.90;1.80;;;13.40;99.90;;;;;;5055439;28;20422;-76
2020/12/23 10:18:59;;;;;;;4.60;2.80;;;13.50;99.90;;;;;;5049534;28;21159;-76
2020/12/23 10:21:44;;;;;;;3.40;2.07;;;13.50;99.90;;;;;;5069136;28;20855;-76
2020/12/23 10:24:29;;;;;;;3.70;1.97;;;13.50;99.90;;;;;;5067239;28;20946;-77
2020/12/23 10:27:15;;;;;;;7.50;2.40;;;13.50;99.90;;;;;;5060846;28;20507;-76
2020/12/23 10:30:00;;;;;;;2.63;2.07;;;13.50;99.90;;;;;;5053689;28;20484;-76
2020/12/23 10:32:46;;;;;;;3.50;1.70;;;13.50;99.90;;;;;;5059490;28;20442;-77
2020/12/23 10:35:31;;;;;;;3.07;1.67;;;13.50;99.90;;;;;;5071623;28;20423;-76
2020/12/23 10:38:16;;;;;;;2.90;1.97;;;13.60;99.90;;;;;;5069949;28;21000;-76
2020/12/23 10:41:01;;;;;;;4.27;2.00;;;13.50;99.90;;;;;;5073545;28;20432;-77
2020/12/23 10:43:47;;;;;;;4.93;1.90;;;13.50;99.90;;;;;;5065168;28;20478;-77
2020/12/23 10:46:32;;;;;;;3.20;1.97;;;13.50;99.90;;;;;;5050250;28;20494;-76
2020/12/23 10:49:17;;;;;;;2.90;1.70;;;13.60;99.90;;;;;;5051232;28;20836;-77
2020/12/23 10:52:02;;;;;;;4.90;1.97;;;13.60;99.90;;;;;;5053430;28;20972;-77
2020/12/23 10:54:47;;;;;;;8.83;2.27;;;13.60;99.90;;;;;;5055698;28;20494;-76
2020/12/23 10:57:33;;;;;;;4.87;2.30;;;13.60;99.90;;;;;;5052373;28;20413;-76
2020/12/23 11:00:19;;;;;;;4.80;2.03;;;13.60;99.90;;;;;;5060842;28;20442;-76
2020/12/23 11:03:05;;;;;;;7.20;2.20;;;13.60;99.90;;;;;;5052404;28;20437;-77
2020/12/23 11:05:50;;;;;;;4.60;2.67;;;13.70;99.90;;;;;;5057896;28;20456;-77
2020/12/23 11:08:35;;;;;;;3.07;1.70;;;13.70;99.90;;;;;;5072029;28;20993;-76
2020/12/23 11:11:20;;;;;;;3.83;2.03;;;13.80;99.90;;;;;;5069234;28;20863;-76
2020/12/23 11:14:05;;;;;;;3.33;2.13;;;13.80;99.90;;;;;;5063843;28;20465;-76
2020/12/23 11:16:51;;;;;;;3.97;2.10;;;13.80;99.90;;;;;;5053186;28;20872;-77
2020/12/23 11:19:37;;;;;;;6.73;1.93;;;13.80;99.90;;;;;;5056384;28;20465;-77
2020/12/23 11:22:22;;;;;;;2.80;2.10;;;13.80;99.90;;;;;;5064566;28;20509;-76
2020/12/23 11:25:07;;;;;;;8.17;2.17;;;13.80;99.90;;;;;;5068486;28;20435;-76
2020/12/23 11:27:52;;;;;;;2.80;1.90;;;13.70;99.90;;;;;;5061882;28;20475;-76
2020/12/23 11:30:37;;;;;;;5.83;1.90;;;13.70;99.90;;;;;;5056611;28;20443;-77
2020/12/23 11:33:23;;;;;;;4.17;2.07;;;13.70;99.90;;;;;;5059576;28;20445;-77
2020/12/23 11:36:08;;;;;;;3.57;2.10;;;13.60;99.90;;;;;;5050679;28;20458;-77
2020/12/23 11:38:53;;;;;;;3.20;2.20;;;13.60;99.90;;;;;;5057769;28;20483;-77
2020/12/23 11:41:38;;;;;;;3.37;2.40;;;13.70;99.90;;;;;;5072334;28;20427;-77
2020/12/23 11:44:23;;;;;;;3.10;1.80;;;13.70;99.90;;;;;;5059073;28;20523;-75
2020/12/23 11:47:09;;;;;;;3.17;1.80;;;13.70;99.90;;;;;;5052243;28;20415;-75
2020/12/23 11:49:55;;;;;;;3.20;2.03;;;13.50;99.90;;;;;;5056823;28;20886;-76
2020/12/23 11:52:40;;;;;;;7.30;2.20;;;13.50;99.90;;;;;;5060099;28;20442;-77
2020/12/23 11:55:25;;;;;;;8.60;2.27;;;13.50;99.90;;;;;;5072119;28;20503;-76
2020/12/23 11:58:10;;;;;;;5.30;2.03;;;13.60;99.90;;;;;;5060694;28;20482;-77
2020/12/23 12:00:55;;;;;;;3.30;2.20;;;13.60;99.90;;;;;;5070526;28;20393;-77
2020/12/23 12:03:40;;;;;;;3.73;2.40;;;13.50;99.90;;;;;;5064534;28;20450;-76
2020/12/23 12:06:26;;;;;;;5.07;3.50;;;13.60;99.90;;;;;;5064463;28;20453;-77
2020/12/23 12:09:11;;;;;;;4.37;2.53;;;13.60;99.90;;;;;;5072125;28;20803;-77
2020/12/23 12:11:56;;;;;;;4.77;2.80;;;13.60;99.90;;;;;;5071584;28;20442;-77
2020/12/23 12:14:41;;;;;;;3.27;2.30;;;13.60;99.90;;;;;;5069608;28;20414;-77
2020/12/23 12:17:27;;;;;;;7.47;2.60;;;13.60;99.90;;;;;;5065212;28;20952;-77
2020/12/23 12:20:12;;;;;;;13.03;9.57;;;13.60;99.90;;;;;;5059739;28;20892;-77
2020/12/23 12:22:58;;;;;;;12.80;3.40;;;13.50;99.90;;;;;;5072115;28;21081;-76
2020/12/23 12:25:43;;;;;;;70.90;49.17;;;13.50;99.90;;;;;;5065264;28;20451;-76
2020/12/23 12:28:28;;;;;;;31.67;18.60;;;13.40;99.90;;;;;;5068851;28;20413;-77
2020/12/23 12:31:17;;;;;;;11.83;8.20;;;13.40;99.90;;;;;;5060260;28;20451;-77
2020/12/23 12:34:03;;;;;;;4.30;3.30;;;13.40;99.90;;;;;;5053148;28;20947;-77
2020/12/23 12:36:48;;;;;;;3.20;2.70;;;13.30;99.90;;;;;;5064134;28;20556;-79
2020/12/23 12:39:34;;;;;;;5.53;2.70;;;13.30;99.90;;;;;;5070353;28;21051;-76
2020/12/23 12:42:18;;;;;;;3.57;2.37;;;13.30;99.90;;;;;;5064982;28;20501;-76
2020/12/23 12:45:04;;;;;;;4.20;2.17;;;13.40;99.90;;;;;;5053203;28;20487;-76
2020/12/23 12:47:49;;;;;;;3.50;2.47;;;13.50;99.90;;;;;;5059423;28;20449;-77
2020/12/23 12:50:35;;;;;;;3.60;2.17;;;13.50;99.90;;;;;;5060888;28;20465;-78
2020/12/23 12:53:20;;;;;;;10.83;3.00;;;13.50;99.90;;;;;;5059057;28;20956;-75
2020/12/23 12:56:06;;;;;;;3.37;2.10;;;13.50;99.90;;;;;;5067590;28;20788;-77
2020/12/23 12:58:51;;;;;;;5.70;2.33;;;13.50;99.90;;;;;;5058461;28;20823;-76
2020/12/23 13:01:37;;;;;;;2.63;2.07;;;13.60;99.90;;;;;;5060118;28;20450;-76
2020/12/23 13:04:22;;;;;;;3.33;2.07;;;13.50;99.90;;;;;;5066646;28;20865;-77
2020/12/23 13:07:07;;;;;;;2.70;1.90;;;13.50;99.90;;;;;;5061468;28;20537;-77
2020/12/23 13:09:52;;;;;;;3.73;2.40;;;13.50;99.90;;;;;;5054824;28;20471;-77
2020/12/23 13:12:38;;;;;;;5.00;2.13;;;13.50;99.90;;;;;;5061384;28;20447;-77
2020/12/23 13:15:23;;;;;;;3.77;2.07;;;13.40;99.90;;;;;;5059673;28;20977;-77
2020/12/23 13:18:13;;;;;;;3.53;2.53;;;13.40;99.90;;;;;;5065190;28;20412;-75
2020/12/23 13:20:59;;;;;;;3.47;2.17;;;13.30;99.90;;;;;;5063288;28;20444;-77
2020/12/23 13:23:44;;;;;;;2.93;2.00;;;13.30;99.90;;;;;;5062299;28;21029;-74
2020/12/23 13:26:29;;;;;;;3.57;1.87;;;13.30;99.90;;;;;;5060994;28;20906;-77
2020/12/23 13:29:16;;;;;;;2.83;1.90;;;13.20;99.90;;;;;;5055843;28;20455;-76
2020/12/23 13:32:01;;;;;;;4.20;1.80;;;13.20;99.90;;;;;;5060172;28;20509;-77
2020/12/23 13:34:47;;;;;;;9.07;2.93;;;13.20;99.90;;;;;;5067199;28;20442;-76
2020/12/23 13:37:32;;;;;;;3.20;2.30;;;13.30;99.90;;;;;;5052707;28;20439;-77
2020/12/23 13:40:17;;;;;;;4.60;2.27;;;13.30;99.90;;;;;;5058729;28;20806;-77
2020/12/23 13:43:02;;;;;;;9.07;2.70;;;13.30;99.90;;;;;;5061862;28;20541;-77
2020/12/23 13:45:48;;;;;;;3.13;1.80;;;13.30;99.90;;;;;;5054595;28;20548;-74
2020/12/23 13:48:33;;;;;;;4.33;3.10;;;13.30;99.90;;;;;;5063574;28;20477;-76
2020/12/23 13:51:19;;;;;;;7.53;2.50;;;13.20;99.90;;;;;;5063960;28;20446;-75
2020/12/23 13:54:04;;;;;;;2.40;2.00;;;13.30;99.90;;;;;;5067108;28;20438;-75
2020/12/23 13:56:50;;;;;;;4.90;2.10;;;13.30;99.90;;;;;;5064845;28;21228;-75
2020/12/23 13:59:35;;;;;;;4.70;1.73;;;13.30;99.90;;;;;;5065017;28;20960;-74
2020/12/23 14:02:21;;;;;;;3.30;2.20;;;13.40;99.90;;;;;;5060792;28;20450;-76
2020/12/23 14:05:06;;;;;;;1.80;1.37;;;13.40;99.90;;;;;;5066164;28;20443;-75
2020/12/23 14:07:53;;;;;;;5.63;1.90;;;13.50;99.90;;;;;;5066068;28;20436;-75
2020/12/23 14:10:38;;;;;;;2.50;1.57;;;13.50;99.90;;;;;;5059079;28;20531;-77
2020/12/23 14:13:23;;;;;;;2.60;1.83;;;13.50;99.90;;;;;;5068162;28;20390;-77
2020/12/23 14:16:09;;;;;;;3.93;1.60;;;13.50;99.90;;;;;;5059349;28;20416;-77
2020/12/23 14:18:55;;;;;;;12.43;1.73;;;13.50;99.90;;;;;;5063221;28;21108;-77
2020/12/23 14:21:40;;;;;;;5.37;2.67;;;13.50;99.90;;;;;;5053109;28;20500;-77